Time;durP1;ratioP1;P1;durP2;ratioP2;P2;SDS_P1;SDS_P2;PMS_P1;PMS_P2;Temp;Humidity;BMP_temperature;BMP_pressure;BME280_temperature;BME280_humidity;BME280_pressure;Samples;Min_cycle;Max_cycle;Signal;HPM_P1;HPM_P2
2021/12/08 00:00:57;;;;;;;2.40;1.50;;;5.20;52.30;;;;;;5071899;28;20206;-80
2021/12/08 00:03:28;;;;;;;1.50;1.10;;;5.20;52.30;;;;;;5070616;28;20201;-81
2021/12/08 00:05:55;;;;;;;1.20;1.10;;;5.30;52.80;;;;;;5064925;28;20218;-80
2021/12/08 00:08:26;;;;;;;2.55;1.13;;;5.30;53.40;;;;;;5069409;28;20273;-80
2021/12/08 00:13:41;;;;;;;2.25;1.75;;;5.40;53.40;;;;;;5062331;28;20604;-80
2021/12/08 00:16:10;;;;;;;1.42;1.27;;;5.40;55.70;;;;;;5073962;28;20235;-80
2021/12/08 00:18:44;;;;;;;2.97;1.33;;;5.40;55.70;;;;;;5074222;28;20199;-80
2021/12/08 00:21:11;;;;;;;1.70;1.10;;;5.50;55.80;;;;;;5066792;28;20191;-80
2021/12/08 00:23:38;;;;;;;1.30;1.17;;;5.50;55.80;;;;;;5074493;28;20305;-79
2021/12/08 00:26:07;;;;;;;1.45;1.05;;;5.50;57.30;;;;;;5072719;28;20206;-79
2021/12/08 00:28:34;;;;;;;1.40;1.30;;;5.50;58.10;;;;;;5068119;28;20236;-80
2021/12/08 00:31:05;;;;;;;3.95;1.20;;;5.50;59.00;;;;;;5068086;28;20258;-79
2021/12/08 00:33:32;;;;;;;2.55;1.60;;;5.50;60.00;;;;;;5072629;28;20199;-80
2021/12/08 00:36:02;;;;;;;1.15;1.00;;;5.50;60.30;;;;;;5065980;28;20334;-80
2021/12/08 00:38:30;;;;;;;6.65;1.30;;;5.50;60.90;;;;;;5044846;28;20532;-79
2021/12/08 00:40:58;;;;;;;3.47;1.83;;;5.50;62.00;;;;;;5067996;28;20225;-80
2021/12/08 00:43:27;;;;;;;2.13;1.30;;;5.50;62.70;;;;;;5072181;28;20207;-80
2021/12/08 00:45:54;;;;;;;2.80;1.35;;;5.40;64.70;;;;;;5055588;28;20278;-80
2021/12/08 00:48:22;;;;;;;3.38;1.30;;;5.40;64.70;;;;;;5073212;28;20233;-78
2021/12/08 00:50:50;;;;;;;3.97;1.38;;;5.40;66.40;;;;;;5073709;28;20202;-78
2021/12/08 00:53:18;;;;;;;1.30;1.00;;;5.40;67.40;;;;;;5076372;28;20206;-79
2021/12/08 00:55:45;;;;;;;1.55;1.30;;;5.40;68.30;;;;;;5075730;28;20294;-78
2021/12/08 00:58:12;;;;;;;1.63;1.20;;;5.40;70.10;;;;;;5074333;28;20208;-77
2021/12/08 01:00:44;;;;;;;2.80;1.20;;;5.40;71.30;;;;;;5078370;28;20270;-78
2021/12/08 01:03:13;;;;;;;1.10;1.00;;;5.40;72.00;;;;;;5074973;28;20207;-79
2021/12/08 01:05:43;;;;;;;1.90;1.45;;;5.30;73.30;;;;;;5061194;28;20227;-80
2021/12/08 01:08:11;;;;;;;1.27;0.95;;;5.30;73.30;;;;;;5062675;28;20197;-79
2021/12/08 01:10:39;;;;;;;1.30;1.10;;;5.40;74.00;;;;;;5060430;28;20264;-79
2021/12/08 01:13:12;;;;;;;1.23;1.13;;;5.30;73.50;;;;;;5058731;28;20235;-80
2021/12/08 01:15:43;;;;;;;2.38;1.00;;;5.30;74.80;;;;;;5060750;28;20234;-81
2021/12/08 01:18:11;;;;;;;2.05;1.10;;;5.20;76.30;;;;;;5061076;28;20198;-78
2021/12/08 01:20:38;;;;;;;3.95;1.60;;;5.20;77.70;;;;;;5061272;28;20233;-81
2021/12/08 01:23:05;;;;;;;1.20;1.10;;;5.20;78.50;;;;;;5062416;28;20232;-78
2021/12/08 01:25:32;;;;;;;2.67;1.35;;;5.20;79.50;;;;;;5066338;28;20219;-78
2021/12/08 01:28:00;;;;;;;1.25;1.15;;;5.20;80.30;;;;;;5076515;28;20210;-79
2021/12/08 01:30:27;;;;;;;1.75;1.50;;;5.20;81.10;;;;;;5079237;28;20185;-78
2021/12/08 01:32:56;;;;;;;2.60;1.35;;;5.20;80.30;;;;;;5078285;28;20202;-79
2021/12/08 01:35:25;;;;;;;1.60;1.50;;;5.30;80.70;;;;;;5075923;28;20242;-79
2021/12/08 01:37:52;;;;;;;3.30;1.85;;;5.30;79.60;;;;;;5071829;28;20225;-79
2021/12/08 01:40:19;;;;;;;2.00;1.70;;;5.30;77.50;;;;;;5066053;28;20207;-79
2021/12/08 01:42:49;;;;;;;3.80;2.28;;;5.20;76.20;;;;;;5064202;28;20245;-79
2021/12/08 01:48:09;;;;;;;4.60;2.53;;;5.10;76.50;;;;;;5059126;28;20723;-79
2021/12/08 01:50:37;;;;;;;6.60;2.72;;;5.00;78.30;;;;;;5055655;28;20306;-79
2021/12/08 01:53:05;;;;;;;2.50;2.30;;;5.00;79.30;;;;;;5056548;28;20210;-79
2021/12/08 01:55:32;;;;;;;3.10;2.50;;;4.90;80.20;;;;;;5057634;28;20230;-79
2021/12/08 01:57:59;;;;;;;3.03;2.60;;;4.80;81.30;;;;;;5055811;28;20670;-78
2021/12/08 02:00:30;;;;;;;3.67;2.65;;;4.70;83.00;;;;;;5055685;28;20249;-79
2021/12/08 02:02:58;;;;;;;4.30;2.70;;;4.60;85.20;;;;;;5061854;28;20248;-79
2021/12/08 02:05:27;;;;;;;3.83;2.70;;;4.50;87.30;;;;;;5059358;28;20317;-78
2021/12/08 02:07:55;;;;;;;2.85;2.55;;;4.40;90.30;;;;;;5054618;28;20249;-79
2021/12/08 02:10:22;;;;;;;5.80;2.92;;;4.40;91.40;;;;;;5055248;28;20322;-79
2021/12/08 02:12:49;;;;;;;3.20;2.50;;;4.40;92.20;;;;;;5054861;28;20298;-81
2021/12/08 02:15:19;;;;;;;3.03;2.55;;;4.40;92.70;;;;;;5055384;28;20793;-79
2021/12/08 02:17:47;;;;;;;4.32;3.50;;;4.30;93.10;;;;;;5055346;28;20237;-80
2021/12/08 02:20:16;;;;;;;3.65;3.20;;;4.30;93.60;;;;;;5040717;28;20207;-78
2021/12/08 02:22:44;;;;;;;4.65;3.30;;;4.30;94.50;;;;;;5036444;28;20207;-78
2021/12/08 02:25:17;;;;;;;5.07;3.40;;;4.20;94.90;;;;;;5035819;28;20337;-77
2021/12/08 02:27:44;;;;;;;6.50;3.40;;;4.20;95.70;;;;;;5036112;28;20393;-77
2021/12/08 02:30:20;;;;;;;4.88;2.95;;;4.30;96.20;;;;;;5036454;28;20208;-78
2021/12/08 02:49:21;;;;;;;7.35;3.45;;;4.50;96.00;;;;;;5031925;28;20207;-77
2021/12/08 02:51:49;;;;;;;5.03;3.60;;;4.50;96.00;;;;;;5040565;28;20279;-78
2021/12/08 02:54:18;;;;;;;5.45;3.08;;;4.50;95.60;;;;;;5038567;28;20207;-77
2021/12/08 02:56:44;;;;;;;3.47;3.10;;;4.50;95.90;;;;;;5036354;28;20254;-77
2021/12/08 02:59:12;;;;;;;5.30;3.10;;;4.50;96.00;;;;;;5037261;28;20211;-77
2021/12/08 03:01:40;;;;;;;5.57;3.55;;;4.40;96.30;;;;;;5036389;28;20219;-76
2021/12/08 03:04:08;;;;;;;4.50;3.28;;;4.40;96.50;;;;;;5040071;28;20690;-77
2021/12/08 03:06:35;;;;;;;4.43;3.55;;;4.40;96.60;;;;;;5042357;28;20291;-76
2021/12/08 03:09:04;;;;;;;3.75;3.38;;;4.30;96.70;;;;;;5037221;28;20210;-78
2021/12/08 03:11:33;;;;;;;4.53;3.20;;;4.30;97.00;;;;;;5043739;28;20203;-79
2021/12/08 03:14:04;;;;;;;9.48;3.20;;;4.30;97.30;;;;;;5039787;28;20207;-78
2021/12/08 03:16:30;;;;;;;4.65;4.25;;;4.30;96.90;;;;;;5037537;28;20230;-77
2021/12/08 03:18:57;;;;;;;6.78;3.85;;;4.20;97.30;;;;;;5036054;28;20217;-78
2021/12/08 03:21:30;;;;;;;5.45;3.72;;;4.20;97.20;;;;;;5036772;28;20372;-79
2021/12/08 03:24:09;;;;;;;6.47;3.85;;;4.20;97.40;;;;;;5046670;28;20191;-79
2021/12/08 03:26:46;;;;;;;4.40;3.72;;;4.20;97.80;;;;;;5065391;28;20249;-78
2021/12/08 03:29:23;;;;;;;4.30;3.60;;;4.00;98.70;;;;;;5063956;28;20228;-78
2021/12/08 03:31:52;;;;;;;5.57;4.40;;;4.00;99.90;;;;;;5065955;28;20654;-77
2021/12/08 03:34:23;;;;;;;5.55;4.03;;;4.00;99.90;;;;;;5069646;28;20214;-79
2021/12/08 03:36:50;;;;;;;5.63;4.07;;;4.00;99.90;;;;;;5070948;28;20232;-78
2021/12/08 03:39:17;;;;;;;8.45;5.18;;;4.00;99.90;;;;;;5068938;28;20304;-78
2021/12/08 03:41:46;;;;;;;5.93;4.35;;;4.10;99.90;;;;;;5055484;28;20214;-78
2021/12/08 03:44:14;;;;;;;5.95;4.50;;;4.10;99.90;;;;;;5061453;28;20232;-77
2021/12/08 03:46:42;;;;;;;5.47;4.80;;;4.10;99.90;;;;;;5067045;28;20234;-78
2021/12/08 03:49:12;;;;;;;9.68;4.05;;;4.00;99.90;;;;;;5069344;28;20206;-78
2021/12/08 03:51:40;;;;;;;7.00;4.25;;;4.00;99.90;;;;;;5067542;28;20635;-78
2021/12/08 03:54:07;;;;;;;8.70;4.80;;;4.00;99.90;;;;;;5066412;28;20256;-78
2021/12/08 03:56:35;;;;;;;6.25;4.32;;;4.00;99.90;;;;;;5059824;28;20302;-78
2021/12/08 03:59:05;;;;;;;3.85;3.55;;;4.00;99.90;;;;;;5056726;28;20206;-77
2021/12/08 04:01:32;;;;;;;7.28;4.43;;;4.10;99.90;;;;;;5058631;28;20285;-77
2021/12/08 04:04:04;;;;;;;6.43;3.05;;;4.10;99.90;;;;;;5056257;28;20605;-78
2021/12/08 04:06:38;;;;;;;7.32;4.15;;;4.10;99.90;;;;;;5055133;28;20231;-78
2021/12/08 04:09:13;;;;;;;5.45;4.22;;;4.10;99.90;;;;;;5054212;28;20206;-78
2021/12/08 04:11:40;;;;;;;5.90;4.30;;;4.20;99.90;;;;;;5054113;28;20201;-78
2021/12/08 04:14:13;;;;;;;7.97;3.85;;;4.20;99.90;;;;;;5054512;28;20214;-76
2021/12/08 04:16:44;;;;;;;5.38;3.63;;;4.20;99.90;;;;;;5053460;28;20227;-77
2021/12/08 04:19:11;;;;;;;6.47;4.28;;;4.20;99.90;;;;;;5054337;28;20206;-78
2021/12/08 04:21:40;;;;;;;7.50;3.92;;;4.20;99.90;;;;;;5053988;28;20550;-76
2021/12/08 04:24:07;;;;;;;6.75;3.92;;;4.20;99.90;;;;;;5054869;28;20230;-78
2021/12/08 04:26:38;;;;;;;3.70;3.38;;;4.20;99.40;;;;;;5054946;28;20292;-76
2021/12/08 04:29:08;;;;;;;4.80;3.85;;;4.30;98.80;;;;;;5058415;28;20195;-77
2021/12/08 04:31:38;;;;;;;9.07;5.57;;;4.30;98.20;;;;;;5058083;28;20577;-77
2021/12/08 04:34:25;;;;;;;4.05;3.75;;;4.30;97.40;;;;;;5058194;28;20236;-77
2021/12/08 04:36:54;;;;;;;4.55;3.60;;;4.40;97.30;;;;;;5056222;28;20323;-76
2021/12/08 04:39:26;;;;;;;4.45;3.53;;;4.40;96.80;;;;;;5038018;28;20194;-77
2021/12/08 04:42:00;;;;;;;4.40;4.00;;;4.50;96.70;;;;;;5038639;28;20652;-77
2021/12/08 04:44:34;;;;;;;5.35;4.25;;;4.60;96.80;;;;;;5038533;28;20310;-77
2021/12/08 04:47:26;;;;;;;8.27;3.90;;;4.60;96.70;;;;;;5038679;28;20235;-78
2021/12/08 04:53:03;;;;;;;5.72;3.63;;;4.70;95.10;;;;;;5140386;27;20920;-77
2021/12/08 05:01:26;;;;;;;5.68;3.97;;;4.60;95.40;;;;;;5130627;28;20195;-78
2021/12/08 05:07:02;;;;;;;4.53;3.78;;;4.60;96.80;;;;;;5099540;22;20241;-80
2021/12/08 05:09:35;;;;;;;7.53;4.70;;;4.60;96.90;;;;;;5074590;28;20213;-80
2021/12/08 05:12:05;;;;;;;7.50;5.25;;;4.50;97.60;;;;;;5072080;28;20257;-81
2021/12/08 05:14:36;;;;;;;7.55;5.32;;;4.40;99.00;;;;;;5054817;28;20207;-80
2021/12/08 05:17:11;;;;;;;8.27;4.82;;;4.40;99.80;;;;;;5058666;28;20230;-79
2021/12/08 05:19:40;;;;;;;8.07;4.75;;;4.20;99.90;;;;;;5081298;28;20221;-80
2021/12/08 05:22:11;;;;;;;7.03;4.10;;;4.20;99.90;;;;;;5092361;28;20186;-82
2021/12/08 05:24:43;;;;;;;6.22;4.25;;;4.10;99.90;;;;;;5077672;28;20214;-83
2021/12/08 05:27:15;;;;;;;5.55;4.50;;;4.00;99.90;;;;;;5073239;28;20233;-84
2021/12/08 05:29:46;;;;;;;7.80;5.20;;;4.00;99.90;;;;;;5074157;28;20203;-81
2021/12/08 05:32:13;;;;;;;6.72;5.15;;;4.00;99.90;;;;;;5061563;28;20226;-80
2021/12/08 05:34:44;;;;;;;5.53;4.60;;;4.10;99.90;;;;;;5058233;28;20289;-82
2021/12/08 05:37:12;;;;;;;9.25;4.80;;;4.10;99.90;;;;;;5060451;28;20211;-81
2021/12/08 05:39:41;;;;;;;5.65;4.97;;;4.10;99.90;;;;;;5070205;28;20191;-86
2021/12/08 05:42:12;;;;;;;8.25;5.50;;;4.00;99.90;;;;;;5072480;28;20190;-87
2021/12/08 05:44:40;;;;;;;5.90;5.07;;;4.00;99.90;;;;;;5071719;28;20237;-83
2021/12/08 05:47:13;;;;;;;6.40;5.15;;;4.00;99.90;;;;;;5063558;28;20199;-83
2021/12/08 05:49:40;;;;;;;9.95;5.25;;;4.10;99.90;;;;;;5056809;28;20238;-82
2021/12/08 05:52:08;;;;;;;6.80;4.97;;;4.10;99.90;;;;;;5063164;28;20226;-83
2021/12/08 05:54:40;;;;;;;6.50;4.60;;;4.10;99.90;;;;;;5057111;28;20270;-84
2021/12/08 05:57:11;;;;;;;12.00;5.53;;;4.10;99.90;;;;;;5056688;28;20681;-80
2021/12/08 05:59:38;;;;;;;8.30;4.65;;;4.00;99.90;;;;;;5062203;28;20205;-84
2021/12/08 06:02:09;;;;;;;8.70;5.53;;;4.00;99.90;;;;;;5062417;28;20631;-85
2021/12/08 06:04:37;;;;;;;7.32;5.20;;;4.00;99.90;;;;;;5048741;28;20242;-86
2021/12/08 06:07:05;;;;;;;6.70;4.72;;;4.00;99.90;;;;;;5047135;28;20207;-85
2021/12/08 06:09:33;;;;;;;8.45;5.50;;;4.00;99.90;;;;;;5052762;28;20507;-85
2021/12/08 06:12:01;;;;;;;7.10;4.93;;;4.10;99.90;;;;;;5049593;28;20721;-85
2021/12/08 06:14:32;;;;;;;7.78;5.95;;;4.10;99.90;;;;;;5046230;28;20405;-83
2021/12/08 06:17:01;;;;;;;7.28;5.70;;;4.20;99.90;;;;;;5050648;28;20211;-83
2021/12/08 06:19:29;;;;;;;7.20;5.40;;;4.10;99.90;;;;;;5052439;28;20207;-84
2021/12/08 06:21:56;;;;;;;5.90;5.40;;;4.20;99.90;;;;;;5054623;28;20226;-83
2021/12/08 06:24:23;;;;;;;7.68;5.68;;;4.20;99.90;;;;;;5054704;28;20203;-85
2021/12/08 06:26:52;;;;;;;10.73;5.10;;;4.20;99.90;;;;;;5058245;28;20235;-82
2021/12/08 06:29:21;;;;;;;7.40;5.32;;;4.20;99.90;;;;;;5056011;28;20211;-87
2021/12/08 06:31:53;;;;;;;6.85;4.50;;;4.30;99.90;;;;;;5050481;28;20261;-84
2021/12/08 06:34:21;;;;;;;5.90;5.22;;;4.20;99.90;;;;;;5046907;28;20238;-83
2021/12/08 06:36:52;;;;;;;6.68;5.10;;;4.30;99.90;;;;;;5057673;28;20251;-80
2021/12/08 06:39:23;;;;;;;10.52;5.22;;;4.30;99.90;;;;;;5057456;28;20249;-84
2021/12/08 06:41:56;;;;;;;7.72;5.13;;;4.40;99.90;;;;;;5057794;28;20191;-82
2021/12/08 06:44:26;;;;;;;8.15;5.78;;;4.40;99.90;;;;;;5056771;28;20210;-82
2021/12/08 06:46:55;;;;;;;7.85;6.22;;;4.40;99.90;;;;;;5049708;28;20667;-84
2021/12/08 06:49:25;;;;;;;7.45;5.65;;;4.20;99.90;;;;;;5050216;28;20235;-87
2021/12/08 06:51:56;;;;;;;10.27;5.90;;;4.20;99.90;;;;;;5052735;28;20294;-86
2021/12/08 06:54:27;;;;;;;6.38;5.65;;;4.30;99.90;;;;;;5053821;28;20217;-82
2021/12/08 06:56:59;;;;;;;6.70;6.03;;;4.40;99.90;;;;;;5052317;28;20211;-82
2021/12/08 06:59:33;;;;;;;8.02;5.65;;;4.40;99.90;;;;;;5056837;28;20218;-81
2021/12/08 07:02:09;;;;;;;6.85;5.22;;;4.40;99.90;;;;;;5056181;28;20219;-84
2021/12/08 07:04:54;;;;;;;6.97;5.72;;;4.40;99.90;;;;;;5046629;28;20566;-86
2021/12/08 07:07:25;;;;;;;9.13;7.05;;;4.40;99.90;;;;;;5044642;28;20211;-83
2021/12/08 07:09:57;;;;;;;7.38;5.82;;;4.50;99.90;;;;;;5045061;28;20211;-86
2021/12/08 07:12:30;;;;;;;5.88;5.25;;;4.40;99.90;;;;;;5045284;28;20250;-84
2021/12/08 07:15:00;;;;;;;7.32;5.55;;;4.30;99.90;;;;;;5045730;28;20303;-84
2021/12/08 07:17:33;;;;;;;7.93;5.53;;;4.20;99.90;;;;;;5047137;28;20195;-84
2021/12/08 07:20:14;;;;;;;7.57;5.35;;;4.30;99.90;;;;;;5046439;28;20207;-84
2021/12/08 07:22:45;;;;;;;6.20;5.22;;;4.20;99.90;;;;;;5046612;28;20192;-82
2021/12/08 07:25:14;;;;;;;8.90;6.10;;;4.10;99.90;;;;;;5050069;28;20218;-83
2021/12/08 07:27:41;;;;;;;7.57;5.80;;;4.00;99.90;;;;;;5053556;28;20242;-83
2021/12/08 07:30:15;;;;;;;8.32;5.45;;;4.00;99.90;;;;;;5052478;28;20230;-82
2021/12/08 07:32:44;;;;;;;5.88;5.10;;;4.00;99.90;;;;;;5045814;28;20337;-84
2021/12/08 07:35:16;;;;;;;6.95;5.70;;;4.00;99.90;;;;;;5045217;28;20227;-84
2021/12/08 07:37:44;;;;;;;9.40;6.30;;;4.20;99.90;;;;;;5050593;28;20262;-84
2021/12/08 07:40:16;;;;;;;10.48;5.78;;;4.20;99.90;;;;;;5049046;28;20230;-85
2021/12/08 07:42:48;;;;;;;9.30;5.78;;;4.30;99.90;;;;;;5051238;28;20207;-83
2021/12/08 07:45:18;;;;;;;7.63;6.35;;;4.30;99.90;;;;;;5051539;28;20250;-84
2021/12/08 07:47:49;;;;;;;9.45;7.45;;;4.40;99.90;;;;;;5049526;28;20265;-83
2021/12/08 07:50:21;;;;;;;9.43;6.85;;;4.40;99.90;;;;;;5048123;28;20207;-83
2021/12/08 07:52:51;;;;;;;10.45;7.55;;;4.40;99.90;;;;;;5051964;28;20683;-81
2021/12/08 07:55:21;;;;;;;12.77;6.30;;;4.50;99.90;;;;;;5054911;28;20227;-81
2021/12/08 07:57:50;;;;;;;8.27;7.18;;;4.60;99.90;;;;;;5056042;28;20203;-82
2021/12/08 08:00:22;;;;;;;10.43;6.88;;;4.50;99.90;;;;;;5054782;28;20271;-82
2021/12/08 08:02:54;;;;;;;14.32;7.13;;;4.60;99.90;;;;;;5051094;28;20233;-83
2021/12/08 08:05:27;;;;;;;11.20;6.82;;;4.60;99.90;;;;;;5051624;28;20295;-83
2021/12/08 08:07:56;;;;;;;12.18;7.57;;;4.60;99.90;;;;;;5051934;28;20211;-85
2021/12/08 08:10:23;;;;;;;11.57;6.90;;;4.70;99.90;;;;;;5051636;28;20203;-83
2021/12/08 08:12:57;;;;;;;11.35;8.40;;;4.60;99.90;;;;;;5050887;28;20242;-83
2021/12/08 08:15:26;;;;;;;14.35;7.55;;;4.60;99.90;;;;;;5050286;28;20227;-83
2021/12/08 08:17:55;;;;;;;9.20;7.43;;;4.70;99.90;;;;;;5052754;28;20204;-84
2021/12/08 08:20:26;;;;;;;9.80;6.95;;;4.70;99.90;;;;;;5052205;28;20207;-83
2021/12/08 08:22:54;;;;;;;8.90;6.55;;;4.70;99.90;;;;;;5052001;28;20211;-83
2021/12/08 08:25:24;;;;;;;12.75;7.15;;;4.60;99.90;;;;;;5052948;28;20231;-85
2021/12/08 08:27:52;;;;;;;8.32;6.80;;;4.60;99.90;;;;;;5051755;28;20195;-83
2021/12/08 08:30:22;;;;;;;11.73;7.85;;;4.50;99.90;;;;;;5049389;28;20203;-83
2021/12/08 08:32:52;;;;;;;8.50;7.50;;;4.40;99.90;;;;;;5048076;28;20718;-83
2021/12/08 08:35:30;;;;;;;11.73;7.30;;;4.60;99.90;;;;;;5053008;28;20258;-83
2021/12/08 08:37:58;;;;;;;9.02;7.15;;;4.60;99.90;;;;;;5054225;28;20282;-83
2021/12/08 08:40:33;;;;;;;10.05;8.07;;;4.70;99.90;;;;;;5052493;28;20210;-82
2021/12/08 08:43:00;;;;;;;13.05;7.93;;;4.80;99.90;;;;;;5050619;28;20210;-82
2021/12/08 08:45:31;;;;;;;9.13;7.18;;;4.90;99.90;;;;;;5052576;28;20226;-86
2021/12/08 08:48:01;;;;;;;10.35;7.18;;;4.90;99.90;;;;;;5056661;28;20176;-85
2021/12/08 08:50:35;;;;;;;8.77;7.60;;;5.10;99.90;;;;;;5049158;28;20203;-83
2021/12/08 08:53:04;;;;;;;11.18;7.40;;;5.10;99.90;;;;;;5048574;28;20227;-83
2021/12/08 08:55:35;;;;;;;9.32;5.93;;;5.20;99.90;;;;;;5049603;28;20238;-81
2021/12/08 08:58:03;;;;;;;8.80;6.55;;;5.10;99.90;;;;;;5054703;28;20190;-85
2021/12/08 09:00:34;;;;;;;8.70;6.80;;;5.00;99.90;;;;;;5054066;28;20631;-83
2021/12/08 09:03:04;;;;;;;12.65;6.75;;;4.90;99.90;;;;;;5254577;22;20260;-86
2021/12/08 09:05:37;;;;;;;9.50;6.20;;;5.00;99.90;;;;;;5094530;28;20210;-82
2021/12/08 09:08:07;;;;;;;8.70;7.13;;;5.10;99.90;;;;;;5083564;28;20194;-81
2021/12/08 09:10:39;;;;;;;7.63;6.90;;;5.20;99.90;;;;;;5084793;28;20543;-82
2021/12/08 09:13:12;;;;;;;7.55;5.70;;;5.30;99.90;;;;;;5086243;28;20293;-82
2021/12/08 09:15:43;;;;;;;6.60;5.85;;;5.40;99.90;;;;;;5085210;28;20238;-81
2021/12/08 09:18:14;;;;;;;9.88;6.22;;;5.50;99.90;;;;;;5098161;22;20257;-80
2021/12/08 09:20:52;;;;;;;8.90;6.60;;;5.50;99.90;;;;;;5068091;28;20638;-79
2021/12/08 09:23:24;;;;;;;8.38;7.30;;;5.60;99.90;;;;;;5069246;28;20190;-79
2021/12/08 09:25:58;;;;;;;8.50;5.97;;;5.60;99.90;;;;;;5072398;28;20202;-80
2021/12/08 09:28:29;;;;;;;10.68;6.65;;;5.70;99.90;;;;;;5073445;28;20229;-80
2021/12/08 09:31:02;;;;;;;7.97;5.90;;;5.80;99.90;;;;;;5074713;28;20215;-83
2021/12/08 09:33:39;;;;;;;6.35;5.75;;;5.90;99.90;;;;;;5074446;28;20270;-80
2021/12/08 09:36:10;;;;;;;9.23;6.10;;;5.90;99.10;;;;;;5068421;28;20301;-81
2021/12/08 09:38:41;;;;;;;8.90;7.40;;;6.00;99.00;;;;;;5076920;28;20233;-80
2021/12/08 09:41:13;;;;;;;10.70;6.88;;;6.00;97.90;;;;;;5079343;28;20191;-80
2021/12/08 09:43:43;;;;;;;7.80;6.20;;;6.10;97.50;;;;;;5078162;28;20206;-80
2021/12/08 09:46:13;;;;;;;9.02;6.40;;;6.20;97.40;;;;;;5070530;28;20265;-80
2021/12/08 09:48:42;;;;;;;8.90;6.55;;;6.20;96.60;;;;;;5068828;28;20250;-80
2021/12/08 09:51:14;;;;;;;7.90;6.30;;;6.30;95.70;;;;;;5072781;28;20277;-80
2021/12/08 09:53:44;;;;;;;15.68;7.45;;;6.20;95.00;;;;;;5070063;28;20219;-79
2021/12/08 09:56:11;;;;;;;7.55;6.57;;;6.20;95.10;;;;;;5062850;28;20202;-80
2021/12/08 09:58:39;;;;;;;7.40;5.80;;;6.30;95.20;;;;;;5066263;28;20254;-79
2021/12/08 10:01:09;;;;;;;8.82;7.05;;;6.40;94.80;;;;;;5073002;28;20241;-79
2021/12/08 10:03:36;;;;;;;9.80;6.13;;;6.40;94.00;;;;;;5064843;28;20199;-79
2021/12/08 10:06:03;;;;;;;9.18;6.57;;;6.40;93.60;;;;;;5069108;28;20598;-80
2021/12/08 10:08:32;;;;;;;11.43;7.25;;;6.40;93.50;;;;;;5073579;28;20235;-80
2021/12/08 10:10:59;;;;;;;12.70;7.55;;;6.40;93.30;;;;;;5076917;28;20212;-80
2021/12/08 10:13:26;;;;;;;9.07;7.00;;;6.40;92.90;;;;;;5078211;28;20293;-80
2021/12/08 10:15:53;;;;;;;11.70;7.38;;;6.30;92.50;;;;;;5077942;28;20206;-79
2021/12/08 10:18:20;;;;;;;9.30;7.03;;;6.30;93.00;;;;;;5078040;28;20265;-81
2021/12/08 10:20:49;;;;;;;11.00;6.78;;;6.30;93.40;;;;;;5065040;28;20596;-79
2021/12/08 10:23:23;;;;;;;9.82;6.70;;;6.40;93.60;;;;;;5060349;28;20211;-79
2021/12/08 10:25:55;;;;;;;8.38;6.80;;;6.40;93.50;;;;;;5062372;28;20203;-81
2021/12/08 10:28:28;;;;;;;7.43;6.68;;;6.50;93.60;;;;;;5069403;28;20234;-80
2021/12/08 10:30:58;;;;;;;8.05;6.57;;;6.50;93.30;;;;;;5071247;28;20247;-80
2021/12/08 10:34:00;;;;;;;13.85;6.80;;;6.60;93.40;;;;;;5073653;28;20215;-82
2021/12/08 10:36:43;;;;;;;12.75;7.80;;;6.50;92.90;;;;;;5077378;28;20220;-79
2021/12/08 10:39:16;;;;;;;20.02;7.60;;;6.30;92.80;;;;;;5073681;28;20206;-81
2021/12/08 10:41:54;;;;;;;18.48;7.70;;;6.40;93.70;;;;;;5062500;28;20179;-81
2021/12/08 10:44:25;;;;;;;13.65;7.38;;;6.50;93.60;;;;;;5062231;28;20316;-83
2021/12/08 10:46:56;;;;;;;9.73;6.75;;;6.60;93.10;;;;;;5062968;28;20286;-81
2021/12/08 10:54:22;;;;;;;10.35;6.80;;;6.60;92.20;;;;;;5063967;28;20640;-80
2021/12/08 10:54:57;;;;;;;9.15;6.78;;;6.60;92.20;;;;;;5061596;28;20256;-78
2021/12/08 10:57:29;;;;;;;14.95;7.38;;;6.70;91.50;;;;;;5062512;28;20737;-81
2021/12/08 11:00:00;;;;;;;12.48;7.18;;;6.80;91.30;;;;;;5062473;28;20202;-80
2021/12/08 11:02:55;;;;;;;8.63;7.35;;;6.90;90.80;;;;;;5062266;28;20224;-80
2021/12/08 11:05:39;;;;;;;11.38;6.70;;;6.70;89.90;;;;;;5061625;28;20225;-79
2021/12/08 11:08:09;;;;;;;11.32;7.30;;;6.60;90.80;;;;;;5061051;28;20230;-81
2021/12/08 11:10:39;;;;;;;7.88;7.07;;;6.60;91.70;;;;;;5061954;28;20233;-79
2021/12/08 11:13:08;;;;;;;13.80;7.43;;;6.80;92.30;;;;;;5061809;28;20289;-82
2021/12/08 11:15:37;;;;;;;8.70;7.22;;;6.90;92.10;;;;;;5066540;28;20241;-82
2021/12/08 11:18:17;;;;;;;13.27;6.75;;;7.00;91.80;;;;;;5068413;28;20242;-82
2021/12/08 11:20:48;;;;;;;14.75;8.07;;;7.10;91.60;;;;;;5060953;28;20206;-83
2021/12/08 11:23:26;;;;;;;16.38;7.93;;;7.30;91.40;;;;;;5061940;28;20210;-80
2021/12/08 11:25:53;;;;;;;11.38;7.03;;;7.30;90.30;;;;;;5061689;28;20210;-81
2021/12/08 11:28:25;;;;;;;12.13;7.78;;;7.30;90.10;;;;;;5066227;28;20231;-81
2021/12/08 11:30:53;;;;;;;12.27;6.70;;;7.40;89.60;;;;;;5073076;28;20204;-82
2021/12/08 11:33:24;;;;;;;11.40;6.50;;;7.50;88.90;;;;;;5059828;28;20611;-80
2021/12/08 11:36:07;;;;;;;11.55;6.80;;;7.50;87.90;;;;;;5058403;28;20210;-80
2021/12/08 11:38:37;;;;;;;10.20;7.05;;;7.60;87.70;;;;;;5061608;28;20299;-81
2021/12/08 11:41:10;;;;;;;30.98;8.18;;;7.60;87.30;;;;;;5065746;28;20241;-80
2021/12/08 11:43:38;;;;;;;11.60;7.32;;;7.70;87.80;;;;;;5065218;28;20187;-80
2021/12/08 11:46:18;;;;;;;9.18;6.72;;;7.70;85.50;;;;;;5059678;28;20662;-82
2021/12/08 11:48:57;;;;;;;13.88;7.38;;;7.70;85.00;;;;;;5063492;28;20218;-81
2021/12/08 11:51:24;;;;;;;7.32;6.13;;;7.80;83.80;;;;;;5069844;28;20217;-82
2021/12/08 11:53:51;;;;;;;10.52;7.78;;;7.60;84.50;;;;;;5070597;28;20230;-81
2021/12/08 11:56:36;;;;;;;9.77;7.25;;;7.60;85.30;;;;;;5070532;28;20273;-81
2021/12/08 11:59:07;;;;;;;11.57;6.70;;;7.60;87.10;;;;;;5069235;28;20604;-81
2021/12/08 12:01:36;;;;;;;6.90;6.20;;;7.60;87.50;;;;;;5065022;28;20234;-84
2021/12/08 12:04:04;;;;;;;9.25;7.20;;;7.50;86.90;;;;;;5068085;28;20210;-80
2021/12/08 12:06:31;;;;;;;8.15;6.95;;;7.50;88.10;;;;;;5071715;28;20504;-80
2021/12/08 12:08:59;;;;;;;12.18;7.05;;;7.50;87.70;;;;;;5069563;28;20226;-83
2021/12/08 12:11:28;;;;;;;8.02;6.22;;;7.60;88.20;;;;;;5074242;28;20643;-82
2021/12/08 12:13:55;;;;;;;10.95;6.25;;;7.50;87.70;;;;;;5076372;28;20221;-80
2021/12/08 12:16:25;;;;;;;8.10;5.90;;;7.60;87.70;;;;;;5074797;28;20233;-83
2021/12/08 12:18:54;;;;;;;10.82;6.30;;;7.60;87.70;;;;;;5070699;28;20206;-81
2021/12/08 12:21:30;;;;;;;6.35;5.53;;;7.70;87.80;;;;;;5069202;28;20631;-82
2021/12/08 12:24:22;;;;;;;19.67;5.97;;;7.70;87.70;;;;;;5068745;28;20210;-83
2021/12/08 12:27:00;;;;;;;8.02;5.95;;;7.70;86.40;;;;;;5066749;28;20245;-84
2021/12/08 12:29:45;;;;;;;10.93;6.50;;;7.80;85.40;;;;;;5067161;28;20278;-81
2021/12/08 12:32:19;;;;;;;8.40;5.90;;;7.70;85.80;;;;;;5065692;28;20237;-83
2021/12/08 12:34:51;;;;;;;8.30;6.47;;;7.60;85.10;;;;;;5073996;28;20222;-81
2021/12/08 12:37:35;;;;;;;7.60;6.25;;;7.70;85.40;;;;;;5075674;28;20285;-84
2021/12/08 12:40:04;;;;;;;7.78;5.90;;;7.60;85.70;;;;;;5076023;28;20214;-79
2021/12/08 12:42:44;;;;;;;7.38;4.88;;;7.60;85.60;;;;;;5075894;28;20213;-80
2021/12/08 12:45:14;;;;;;;8.73;5.75;;;7.60;85.70;;;;;;5076363;28;20193;-79
2021/12/08 12:47:43;;;;;;;9.70;6.25;;;7.60;85.50;;;;;;5075573;28;20230;-81
2021/12/08 12:50:21;;;;;;;13.27;5.88;;;7.60;85.70;;;;;;5074674;28;20214;-79
2021/12/08 12:52:57;;;;;;;13.10;5.35;;;7.60;86.10;;;;;;5075428;28;20225;-84
2021/12/08 12:55:26;;;;;;;12.43;5.90;;;7.50;85.40;;;;;;5075571;28;20184;-84
2021/12/08 12:58:15;;;;;;;7.38;5.47;;;7.50;87.30;;;;;;5075327;28;20229;-79
2021/12/08 13:00:45;;;;;;;8.23;6.20;;;7.50;86.60;;;;;;5074414;28;20213;-80
2021/12/08 13:03:45;;;;;;;10.55;5.05;;;7.40;87.10;;;;;;5069104;28;20221;-83
2021/12/08 13:06:16;;;;;;;6.50;5.90;;;7.40;87.30;;;;;;5065887;28;20194;-85
2021/12/08 13:08:45;;;;;;;9.07;4.93;;;7.50;87.80;;;;;;5064134;28;20218;-82
2021/12/08 13:11:44;;;;;;;11.10;6.03;;;7.50;87.70;;;;;;5067539;28;20327;-83
2021/12/08 13:14:21;;;;;;;10.57;5.53;;;7.50;87.10;;;;;;5064947;28;20291;-83
2021/12/08 13:17:07;;;;;;;5.30;4.60;;;7.50;87.70;;;;;;5070724;28;20803;-83
2021/12/08 13:19:40;;;;;;;7.25;5.20;;;7.40;87.60;;;;;;5073351;28;20240;-83
2021/12/08 13:22:09;;;;;;;5.78;4.65;;;7.40;87.60;;;;;;5071098;28;20213;-81
2021/12/08 13:24:42;;;;;;;5.80;4.65;;;7.50;88.50;;;;;;5066495;28;20206;-82
2021/12/08 13:27:11;;;;;;;6.97;5.38;;;7.50;87.70;;;;;;5069451;28;20234;-82
2021/12/08 13:29:42;;;;;;;6.80;5.60;;;7.50;87.60;;;;;;5071035;28;20210;-82
2021/12/08 13:32:13;;;;;;;6.60;5.15;;;7.50;87.70;;;;;;5069962;28;20198;-80
2021/12/08 13:34:42;;;;;;;6.93;5.35;;;7.40;87.60;;;;;;5071508;28;20620;-82
2021/12/08 13:37:23;;;;;;;7.88;5.55;;;7.40;87.60;;;;;;5072109;28;20242;-79
2021/12/08 13:39:52;;;;;;;7.20;6.03;;;7.40;87.60;;;;;;5076150;28;20201;-82
2021/12/08 13:42:29;;;;;;;7.38;5.50;;;7.30;87.50;;;;;;5078409;28;20255;-81
2021/12/08 13:44:59;;;;;;;5.80;5.20;;;7.30;88.50;;;;;;5079438;28;20235;-80
2021/12/08 13:47:33;;;;;;;6.45;5.72;;;7.40;88.90;;;;;;5079812;28;20210;-79
2021/12/08 13:50:07;;;;;;;9.70;6.10;;;7.40;88.00;;;;;;5079251;28;20201;-81
2021/12/08 13:52:38;;;;;;;8.07;6.03;;;7.40;88.80;;;;;;5079032;28;20190;-81